sensor_id;sensor_type;location;lat;lon;timestamp;P1;durP1;ratioP1;P2;durP2;ratioP2
16272;SDS011;8244;50.044;9.006;2022-09-19T00:01:07;2.40;;;1.20;;
16272;SDS011;8244;50.044;9.006;2022-09-19T00:06:34;1.88;;;0.98;;
16272;SDS011;8244;50.044;9.006;2022-09-19T00:11:57;2.50;;;1.08;;
16272;SDS011;8244;50.044;9.006;2022-09-19T00:17:21;1.40;;;1.30;;
16272;SDS011;8244;50.044;9.006;2022-09-19T00:22:42;2.88;;;1.30;;
16272;SDS011;8244;50.044;9.006;2022-09-19T00:28:25;5.97;;;1.50;;
16272;SDS011;8244;50.044;9.006;2022-09-19T00:33:49;5.25;;;1.23;;
16272;SDS011;8244;50.044;9.006;2022-09-19T00:39:14;1.83;;;1.08;;
16272;SDS011;8244;50.044;9.006;2022-09-19T00:44:54;3.92;;;1.17;;
16272;SDS011;8244;50.044;9.006;2022-09-19T00:50:23;4.72;;;1.75;;
16272;SDS011;8244;50.044;9.006;2022-09-19T00:55:47;6.53;;;1.50;;
16272;SDS011;8244;50.044;9.006;2022-09-19T01:01:13;5.68;;;1.35;;
16272;SDS011;8244;50.044;9.006;2022-09-19T01:06:44;4.40;;;1.60;;
16272;SDS011;8244;50.044;9.006;2022-09-19T01:12:20;1.50;;;1.20;;
16272;SDS011;8244;50.044;9.006;2022-09-19T01:17:52;7.88;;;1.75;;
16272;SDS011;8244;50.044;9.006;2022-09-19T01:23:26;5.55;;;1.65;;
16272;SDS011;8244;50.044;9.006;2022-09-19T01:29:07;4.00;;;1.58;;
16272;SDS011;8244;50.044;9.006;2022-09-19T01:34:33;8.18;;;2.00;;
16272;SDS011;8244;50.044;9.006;2022-09-19T01:39:59;6.22;;;1.70;;
16272;SDS011;8244;50.044;9.006;2022-09-19T01:45:25;7.70;;;1.77;;
16272;SDS011;8244;50.044;9.006;2022-09-19T01:51:02;4.47;;;1.52;;
16272;SDS011;8244;50.044;9.006;2022-09-19T01:56:40;5.32;;;1.63;;
16272;SDS011;8244;50.044;9.006;2022-09-19T02:02:17;7.72;;;1.83;;
16272;SDS011;8244;50.044;9.006;2022-09-19T02:07:51;6.03;;;2.00;;
16272;SDS011;8244;50.044;9.006;2022-09-19T02:13:21;11.07;;;1.95;;
16272;SDS011;8244;50.044;9.006;2022-09-19T02:18:47;8.77;;;2.00;;
16272;SDS011;8244;50.044;9.006;2022-09-19T02:24:15;9.27;;;2.00;;
16272;SDS011;8244;50.044;9.006;2022-09-19T02:29:42;7.38;;;1.90;;
16272;SDS011;8244;50.044;9.006;2022-09-19T02:35:10;6.35;;;1.85;;
16272;SDS011;8244;50.044;9.006;2022-09-19T02:40:34;10.38;;;2.00;;
16272;SDS011;8244;50.044;9.006;2022-09-19T02:46:07;11.27;;;2.15;;
16272;SDS011;8244;50.044;9.006;2022-09-19T02:51:36;6.90;;;2.03;;
16272;SDS011;8244;50.044;9.006;2022-09-19T02:57:04;8.25;;;2.10;;
16272;SDS011;8244;50.044;9.006;2022-09-19T03:02:30;10.05;;;2.47;;
16272;SDS011;8244;50.044;9.006;2022-09-19T03:07:58;7.10;;;1.90;;
16272;SDS011;8244;50.044;9.006;2022-09-19T03:13:23;7.53;;;2.22;;
16272;SDS011;8244;50.044;9.006;2022-09-19T03:18:45;8.32;;;2.30;;
16272;SDS011;8244;50.044;9.006;2022-09-19T03:24:10;8.55;;;2.00;;
16272;SDS011;8244;50.044;9.006;2022-09-19T03:29:33;10.57;;;2.47;;
16272;SDS011;8244;50.044;9.006;2022-09-19T03:34:55;8.10;;;2.28;;
16272;SDS011;8244;50.044;9.006;2022-09-19T03:40:18;10.18;;;2.35;;
16272;SDS011;8244;50.044;9.006;2022-09-19T03:45:42;10.85;;;2.58;;
16272;SDS011;8244;50.044;9.006;2022-09-19T03:51:05;9.65;;;2.40;;
16272;SDS011;8244;50.044;9.006;2022-09-19T03:56:29;9.77;;;2.45;;
16272;SDS011;8244;50.044;9.006;2022-09-19T04:01:51;8.73;;;2.45;;
16272;SDS011;8244;50.044;9.006;2022-09-19T04:07:14;8.05;;;2.33;;
16272;SDS011;8244;50.044;9.006;2022-09-19T04:12:38;9.07;;;2.70;;
16272;SDS011;8244;50.044;9.006;2022-09-19T04:17:59;7.43;;;2.58;;
16272;SDS011;8244;50.044;9.006;2022-09-19T04:23:23;9.07;;;2.28;;
16272;SDS011;8244;50.044;9.006;2022-09-19T04:28:47;14.98;;;2.63;;
16272;SDS011;8244;50.044;9.006;2022-09-19T04:34:09;11.50;;;3.10;;
16272;SDS011;8244;50.044;9.006;2022-09-19T04:39:34;14.35;;;2.92;;
16272;SDS011;8244;50.044;9.006;2022-09-19T04:44:58;16.13;;;3.40;;
16272;SDS011;8244;50.044;9.006;2022-09-19T04:50:20;14.02;;;3.00;;
16272;SDS011;8244;50.044;9.006;2022-09-19T04:55:42;9.95;;;2.80;;
16272;SDS011;8244;50.044;9.006;2022-09-19T05:01:05;13.68;;;3.03;;
16272;SDS011;8244;50.044;9.006;2022-09-19T05:06:28;18.15;;;3.83;;
16272;SDS011;8244;50.044;9.006;2022-09-19T05:11:50;15.52;;;4.40;;
16272;SDS011;8244;50.044;9.006;2022-09-19T05:17:17;12.18;;;3.03;;
16272;SDS011;8244;50.044;9.006;2022-09-19T05:22:40;17.48;;;4.05;;
16272;SDS011;8244;50.044;9.006;2022-09-19T05:28:02;13.15;;;3.20;;
16272;SDS011;8244;50.044;9.006;2022-09-19T05:33:27;15.55;;;4.90;;
16272;SDS011;8244;50.044;9.006;2022-09-19T05:38:49;9.80;;;3.20;;
16272;SDS011;8244;50.044;9.006;2022-09-19T05:44:12;14.65;;;3.08;;
16272;SDS011;8244;50.044;9.006;2022-09-19T05:49:38;12.52;;;3.30;;
16272;SDS011;8244;50.044;9.006;2022-09-19T05:55:00;11.80;;;2.97;;
16272;SDS011;8244;50.044;9.006;2022-09-19T06:00:22;12.63;;;2.70;;
16272;SDS011;8244;50.044;9.006;2022-09-19T06:05:48;11.00;;;2.85;;
16272;SDS011;8244;50.044;9.006;2022-09-19T06:11:12;12.50;;;2.75;;
16272;SDS011;8244;50.044;9.006;2022-09-19T06:16:34;11.18;;;3.60;;
16272;SDS011;8244;50.044;9.006;2022-09-19T06:21:58;14.82;;;3.90;;
16272;SDS011;8244;50.044;9.006;2022-09-19T06:27:20;12.77;;;3.45;;
16272;SDS011;8244;50.044;9.006;2022-09-19T06:32:42;18.48;;;4.10;;
16272;SDS011;8244;50.044;9.006;2022-09-19T06:38:06;13.52;;;3.65;;
16272;SDS011;8244;50.044;9.006;2022-09-19T06:43:28;10.73;;;3.10;;
16272;SDS011;8244;50.044;9.006;2022-09-19T06:48:50;9.75;;;3.00;;
16272;SDS011;8244;50.044;9.006;2022-09-19T06:54:13;10.25;;;2.80;;
16272;SDS011;8244;50.044;9.006;2022-09-19T06:59:35;10.55;;;3.22;;
16272;SDS011;8244;50.044;9.006;2022-09-19T07:04:57;12.95;;;3.90;;
16272;SDS011;8244;50.044;9.006;2022-09-19T07:10:20;15.20;;;3.75;;
16272;SDS011;8244;50.044;9.006;2022-09-19T07:15:43;11.10;;;2.97;;
16272;SDS011;8244;50.044;9.006;2022-09-19T07:21:05;10.38;;;3.40;;
16272;SDS011;8244;50.044;9.006;2022-09-19T07:26:28;13.00;;;3.67;;
16272;SDS011;8244;50.044;9.006;2022-09-19T07:31:50;12.57;;;3.40;;
16272;SDS011;8244;50.044;9.006;2022-09-19T07:37:12;9.52;;;2.88;;
16272;SDS011;8244;50.044;9.006;2022-09-19T07:42:35;13.35;;;3.75;;
16272;SDS011;8244;50.044;9.006;2022-09-19T07:47:57;9.80;;;3.10;;
16272;SDS011;8244;50.044;9.006;2022-09-19T07:53:20;10.18;;;3.00;;
16272;SDS011;8244;50.044;9.006;2022-09-19T07:58:44;9.65;;;3.03;;
16272;SDS011;8244;50.044;9.006;2022-09-19T08:04:06;6.95;;;3.08;;
16272;SDS011;8244;50.044;9.006;2022-09-19T08:09:28;10.18;;;3.10;;
16272;SDS011;8244;50.044;9.006;2022-09-19T08:14:51;10.70;;;2.80;;
16272;SDS011;8244;50.044;9.006;2022-09-19T08:20:14;11.52;;;3.45;;
16272;SDS011;8244;50.044;9.006;2022-09-19T08:25:36;12.23;;;2.92;;
16272;SDS011;8244;50.044;9.006;2022-09-19T08:31:01;10.55;;;3.08;;
16272;SDS011;8244;50.044;9.006;2022-09-19T08:36:24;11.88;;;2.95;;
16272;SDS011;8244;50.044;9.006;2022-09-19T08:41:51;8.15;;;2.58;;
16272;SDS011;8244;50.044;9.006;2022-09-19T08:47:24;9.32;;;2.70;;
16272;SDS011;8244;50.044;9.006;2022-09-19T08:52:52;6.68;;;3.00;;
16272;SDS011;8244;50.044;9.006;2022-09-19T08:58:17;13.25;;;3.20;;
16272;SDS011;8244;50.044;9.006;2022-09-19T09:03:45;7.78;;;3.28;;
16272;SDS011;8244;50.044;9.006;2022-09-19T09:09:17;10.82;;;3.40;;
16272;SDS011;8244;50.044;9.006;2022-09-19T09:14:48;6.57;;;2.90;;
16272;SDS011;8244;50.044;9.006;2022-09-19T09:20:26;7.65;;;3.47;;
16272;SDS011;8244;50.044;9.006;2022-09-19T09:26:10;9.13;;;2.95;;
16272;SDS011;8244;50.044;9.006;2022-09-19T09:31:36;11.60;;;2.92;;
16272;SDS011;8244;50.044;9.006;2022-09-19T09:37:03;10.75;;;2.88;;
16272;SDS011;8244;50.044;9.006;2022-09-19T09:42:36;7.75;;;3.15;;
16272;SDS011;8244;50.044;9.006;2022-09-19T09:48:08;11.15;;;3.65;;
16272;SDS011;8244;50.044;9.006;2022-09-19T09:53:40;7.28;;;3.03;;
16272;SDS011;8244;50.044;9.006;2022-09-19T09:59:18;8.88;;;3.03;;
16272;SDS011;8244;50.044;9.006;2022-09-19T10:05:05;10.05;;;2.88;;
16272;SDS011;8244;50.044;9.006;2022-09-19T10:10:33;8.80;;;2.90;;
16272;SDS011;8244;50.044;9.006;2022-09-19T10:15:59;7.10;;;3.05;;
16272;SDS011;8244;50.044;9.006;2022-09-19T10:21:23;6.80;;;2.80;;
16272;SDS011;8244;50.044;9.006;2022-09-19T10:26:47;8.50;;;2.55;;
16272;SDS011;8244;50.044;9.006;2022-09-19T10:32:12;8.98;;;2.80;;
16272;SDS011;8244;50.044;9.006;2022-09-19T10:37:39;7.18;;;2.80;;
16272;SDS011;8244;50.044;9.006;2022-09-19T10:43:02;6.68;;;2.55;;
16272;SDS011;8244;50.044;9.006;2022-09-19T10:48:25;9.13;;;2.72;;
16272;SDS011;8244;50.044;9.006;2022-09-19T10:53:52;9.05;;;2.53;;
16272;SDS011;8244;50.044;9.006;2022-09-19T10:59:21;10.80;;;2.47;;
16272;SDS011;8244;50.044;9.006;2022-09-19T11:04:51;4.95;;;2.20;;
16272;SDS011;8244;50.044;9.006;2022-09-19T11:10:34;6.13;;;2.33;;
16272;SDS011;8244;50.044;9.006;2022-09-19T11:16:05;7.80;;;2.20;;
16272;SDS011;8244;50.044;9.006;2022-09-19T11:21:40;7.40;;;2.05;;
16272;SDS011;8244;50.044;9.006;2022-09-19T11:27:17;5.72;;;2.30;;
16272;SDS011;8244;50.044;9.006;2022-09-19T11:32:54;7.25;;;2.13;;
16272;SDS011;8244;50.044;9.006;2022-09-19T11:38:27;6.53;;;2.30;;
16272;SDS011;8244;50.044;9.006;2022-09-19T11:44:04;7.20;;;2.30;;
16272;SDS011;8244;50.044;9.006;2022-09-19T11:55:28;6.57;;;2.10;;
16272;SDS011;8244;50.044;9.006;2022-09-19T12:01:00;6.95;;;1.80;;
16272;SDS011;8244;50.044;9.006;2022-09-19T12:06:41;9.13;;;2.30;;
16272;SDS011;8244;50.044;9.006;2022-09-19T12:12:12;8.93;;;1.92;;
16272;SDS011;8244;50.044;9.006;2022-09-19T12:17:37;6.55;;;1.95;;
16272;SDS011;8244;50.044;9.006;2022-09-19T12:23:07;9.30;;;2.10;;
16272;SDS011;8244;50.044;9.006;2022-09-19T12:28:56;9.45;;;2.10;;
16272;SDS011;8244;50.044;9.006;2022-09-19T12:34:26;6.97;;;2.00;;
16272;SDS011;8244;50.044;9.006;2022-09-19T12:39:56;4.20;;;1.70;;
16272;SDS011;8244;50.044;9.006;2022-09-19T12:45:24;7.47;;;2.20;;
16272;SDS011;8244;50.044;9.006;2022-09-19T12:50:51;9.23;;;2.30;;
16272;SDS011;8244;50.044;9.006;2022-09-19T12:56:17;8.23;;;2.00;;
16272;SDS011;8244;50.044;9.006;2022-09-19T13:01:43;7.43;;;1.70;;
16272;SDS011;8244;50.044;9.006;2022-09-19T13:07:10;6.45;;;1.60;;
16272;SDS011;8244;50.044;9.006;2022-09-19T13:12:41;6.22;;;1.77;;
16272;SDS011;8244;50.044;9.006;2022-09-19T13:18:09;6.20;;;1.63;;
16272;SDS011;8244;50.044;9.006;2022-09-19T13:23:54;6.20;;;1.70;;
16272;SDS011;8244;50.044;9.006;2022-09-19T13:35:11;5.72;;;1.70;;
16272;SDS011;8244;50.044;9.006;2022-09-19T13:40:38;6.63;;;1.77;;
16272;SDS011;8244;50.044;9.006;2022-09-19T13:46:05;5.28;;;1.40;;
16272;SDS011;8244;50.044;9.006;2022-09-19T13:51:37;4.68;;;1.40;;
16272;SDS011;8244;50.044;9.006;2022-09-19T13:57:02;7.00;;;1.65;;
16272;SDS011;8244;50.044;9.006;2022-09-19T14:02:27;5.72;;;1.50;;
16272;SDS011;8244;50.044;9.006;2022-09-19T14:07:53;4.97;;;1.42;;
16272;SDS011;8244;50.044;9.006;2022-09-19T14:18:59;5.50;;;1.60;;
16272;SDS011;8244;50.044;9.006;2022-09-19T14:24:25;4.97;;;1.50;;
16272;SDS011;8244;50.044;9.006;2022-09-19T14:29:58;4.55;;;1.23;;
16272;SDS011;8244;50.044;9.006;2022-09-19T14:35:31;4.85;;;1.10;;
16272;SDS011;8244;50.044;9.006;2022-09-19T14:40:56;5.65;;;1.30;;
16272;SDS011;8244;50.044;9.006;2022-09-19T14:46:25;2.03;;;1.00;;
16272;SDS011;8244;50.044;9.006;2022-09-19T14:51:55;3.70;;;1.40;;
16272;SDS011;8244;50.044;9.006;2022-09-19T14:57:20;5.82;;;1.27;;
16272;SDS011;8244;50.044;9.006;2022-09-19T15:02:44;5.00;;;1.52;;
16272;SDS011;8244;50.044;9.006;2022-09-19T15:08:19;6.13;;;1.45;;
16272;SDS011;8244;50.044;9.006;2022-09-19T15:13:50;4.28;;;1.33;;
16272;SDS011;8244;50.044;9.006;2022-09-19T15:19:12;3.22;;;1.00;;
16272;SDS011;8244;50.044;9.006;2022-09-19T15:24:37;3.88;;;1.00;;
16272;SDS011;8244;50.044;9.006;2022-09-19T15:30:09;2.17;;;0.85;;
16272;SDS011;8244;50.044;9.006;2022-09-19T15:35:41;4.93;;;1.33;;
16272;SDS011;8244;50.044;9.006;2022-09-19T15:41:06;3.00;;;1.05;;
16272;SDS011;8244;50.044;9.006;2022-09-19T15:46:39;3.38;;;1.40;;
16272;SDS011;8244;50.044;9.006;2022-09-19T15:52:06;4.60;;;1.30;;
16272;SDS011;8244;50.044;9.006;2022-09-19T15:57:32;7.90;;;1.42;;
16272;SDS011;8244;50.044;9.006;2022-09-19T16:03:00;2.97;;;1.20;;
16272;SDS011;8244;50.044;9.006;2022-09-19T16:08:28;6.70;;;1.50;;
16272;SDS011;8244;50.044;9.006;2022-09-19T16:14:14;6.35;;;1.67;;
16272;SDS011;8244;50.044;9.006;2022-09-19T16:19:40;3.72;;;1.40;;
16272;SDS011;8244;50.044;9.006;2022-09-19T16:25:04;6.47;;;1.65;;
16272;SDS011;8244;50.044;9.006;2022-09-19T16:30:27;3.17;;;1.58;;
16272;SDS011;8244;50.044;9.006;2022-09-19T16:35:50;3.13;;;1.10;;
16272;SDS011;8244;50.044;9.006;2022-09-19T16:41:23;3.17;;;1.00;;
16272;SDS011;8244;50.044;9.006;2022-09-19T16:46:47;3.97;;;1.20;;
16272;SDS011;8244;50.044;9.006;2022-09-19T16:52:18;2.30;;;1.20;;
16272;SDS011;8244;50.044;9.006;2022-09-19T16:57:42;6.68;;;1.60;;
16272;SDS011;8244;50.044;9.006;2022-09-19T17:03:05;4.60;;;1.50;;
16272;SDS011;8244;50.044;9.006;2022-09-19T17:08:27;4.88;;;1.25;;
16272;SDS011;8244;50.044;9.006;2022-09-19T17:13:49;4.57;;;1.48;;
16272;SDS011;8244;50.044;9.006;2022-09-19T17:19:13;3.13;;;1.20;;
16272;SDS011;8244;50.044;9.006;2022-09-19T17:24:35;2.42;;;1.15;;
16272;SDS011;8244;50.044;9.006;2022-09-19T17:29:57;3.60;;;1.40;;
16272;SDS011;8244;50.044;9.006;2022-09-19T17:35:20;5.85;;;1.65;;
16272;SDS011;8244;50.044;9.006;2022-09-19T17:40:43;6.70;;;2.25;;
16272;SDS011;8244;50.044;9.006;2022-09-19T17:46:07;3.05;;;1.30;;
16272;SDS011;8244;50.044;9.006;2022-09-19T17:51:32;6.72;;;1.77;;
16272;SDS011;8244;50.044;9.006;2022-09-19T17:56:54;11.52;;;2.03;;
16272;SDS011;8244;50.044;9.006;2022-09-19T18:02:16;4.43;;;1.42;;
16272;SDS011;8244;50.044;9.006;2022-09-19T18:07:57;2.75;;;1.35;;
16272;SDS011;8244;50.044;9.006;2022-09-19T18:13:19;4.65;;;1.27;;
16272;SDS011;8244;50.044;9.006;2022-09-19T18:18:41;6.25;;;1.42;;
16272;SDS011;8244;50.044;9.006;2022-09-19T18:24:04;4.93;;;1.52;;
16272;SDS011;8244;50.044;9.006;2022-09-19T18:29:27;7.03;;;1.55;;
16272;SDS011;8244;50.044;9.006;2022-09-19T18:34:51;7.28;;;1.58;;
16272;SDS011;8244;50.044;9.006;2022-09-19T18:40:14;6.85;;;1.58;;
16272;SDS011;8244;50.044;9.006;2022-09-19T18:45:37;4.60;;;1.40;;
16272;SDS011;8244;50.044;9.006;2022-09-19T18:50:59;3.75;;;1.35;;
16272;SDS011;8244;50.044;9.006;2022-09-19T18:56:23;5.85;;;1.42;;
16272;SDS011;8244;50.044;9.006;2022-09-19T19:01:45;5.90;;;1.50;;
16272;SDS011;8244;50.044;9.006;2022-09-19T19:07:07;4.28;;;1.67;;
16272;SDS011;8244;50.044;9.006;2022-09-19T19:12:30;4.68;;;2.00;;
16272;SDS011;8244;50.044;9.006;2022-09-19T19:17:53;5.55;;;1.23;;
16272;SDS011;8244;50.044;9.006;2022-09-19T19:23:15;6.70;;;1.30;;
16272;SDS011;8244;50.044;9.006;2022-09-19T19:28:38;4.97;;;1.40;;
16272;SDS011;8244;50.044;9.006;2022-09-19T19:34:00;5.18;;;1.35;;
16272;SDS011;8244;50.044;9.006;2022-09-19T19:39:23;3.33;;;1.50;;
16272;SDS011;8244;50.044;9.006;2022-09-19T19:44:46;6.50;;;1.95;;
16272;SDS011;8244;50.044;9.006;2022-09-19T19:50:08;5.63;;;2.00;;
16272;SDS011;8244;50.044;9.006;2022-09-19T19:55:31;5.43;;;2.00;;
16272;SDS011;8244;50.044;9.006;2022-09-19T20:00:58;4.07;;;1.67;;
16272;SDS011;8244;50.044;9.006;2022-09-19T20:06:23;4.13;;;1.80;;
16272;SDS011;8244;50.044;9.006;2022-09-19T20:11:46;5.72;;;1.80;;
16272;SDS011;8244;50.044;9.006;2022-09-19T20:17:10;5.15;;;1.85;;
16272;SDS011;8244;50.044;9.006;2022-09-19T20:22:32;6.65;;;1.60;;
16272;SDS011;8244;50.044;9.006;2022-09-19T20:27:54;4.45;;;1.50;;
16272;SDS011;8244;50.044;9.006;2022-09-19T20:33:21;3.05;;;1.60;;
16272;SDS011;8244;50.044;9.006;2022-09-19T20:38:43;7.90;;;1.80;;
16272;SDS011;8244;50.044;9.006;2022-09-19T20:44:05;5.88;;;1.77;;
16272;SDS011;8244;50.044;9.006;2022-09-19T20:49:29;3.30;;;1.95;;
16272;SDS011;8244;50.044;9.006;2022-09-19T20:54:51;7.85;;;2.50;;
16272;SDS011;8244;50.044;9.006;2022-09-19T21:00:14;7.35;;;2.30;;
16272;SDS011;8244;50.044;9.006;2022-09-19T21:05:37;7.72;;;2.42;;
16272;SDS011;8244;50.044;9.006;2022-09-19T21:11:01;6.43;;;2.17;;
16272;SDS011;8244;50.044;9.006;2022-09-19T21:16:25;8.82;;;2.10;;
16272;SDS011;8244;50.044;9.006;2022-09-19T21:21:48;7.95;;;3.03;;
16272;SDS011;8244;50.044;9.006;2022-09-19T21:27:10;4.43;;;1.70;;
16272;SDS011;8244;50.044;9.006;2022-09-19T21:32:32;4.90;;;1.52;;
16272;SDS011;8244;50.044;9.006;2022-09-19T21:37:55;7.18;;;1.88;;
16272;SDS011;8244;50.044;9.006;2022-09-19T21:43:17;6.55;;;1.90;;
16272;SDS011;8244;50.044;9.006;2022-09-19T21:48:40;4.60;;;1.80;;
16272;SDS011;8244;50.044;9.006;2022-09-19T21:54:05;6.10;;;1.77;;
16272;SDS011;8244;50.044;9.006;2022-09-19T21:59:28;7.25;;;1.88;;
16272;SDS011;8244;50.044;9.006;2022-09-19T22:04:50;4.63;;;1.48;;
16272;SDS011;8244;50.044;9.006;2022-09-19T22:10:13;6.45;;;1.90;;
16272;SDS011;8244;50.044;9.006;2022-09-19T22:15:35;6.90;;;1.80;;
16272;SDS011;8244;50.044;9.006;2022-09-19T22:20:57;5.07;;;1.70;;
16272;SDS011;8244;50.044;9.006;2022-09-19T22:26:21;4.43;;;1.90;;
16272;SDS011;8244;50.044;9.006;2022-09-19T22:31:44;5.63;;;1.67;;
16272;SDS011;8244;50.044;9.006;2022-09-19T22:37:06;10.40;;;1.90;;
16272;SDS011;8244;50.044;9.006;2022-09-19T22:42:29;9.48;;;2.53;;
16272;SDS011;8244;50.044;9.006;2022-09-19T22:47:51;4.05;;;1.55;;
16272;SDS011;8244;50.044;9.006;2022-09-19T22:53:14;7.75;;;1.75;;
16272;SDS011;8244;50.044;9.006;2022-09-19T22:58:39;7.10;;;2.15;;
16272;SDS011;8244;50.044;9.006;2022-09-19T23:04:02;7.90;;;1.90;;
16272;SDS011;8244;50.044;9.006;2022-09-19T23:09:25;5.45;;;1.65;;
16272;SDS011;8244;50.044;9.006;2022-09-19T23:14:48;7.47;;;1.70;;
16272;SDS011;8244;50.044;9.006;2022-09-19T23:20:10;11.23;;;2.13;;
16272;SDS011;8244;50.044;9.006;2022-09-19T23:25:32;6.57;;;1.95;;
16272;SDS011;8244;50.044;9.006;2022-09-19T23:30:55;6.65;;;2.00;;
16272;SDS011;8244;50.044;9.006;2022-09-19T23:36:22;4.35;;;1.98;;
16272;SDS011;8244;50.044;9.006;2022-09-19T23:41:44;7.28;;;2.08;;
16272;SDS011;8244;50.044;9.006;2022-09-19T23:47:07;3.75;;;1.80;;
16272;SDS011;8244;50.044;9.006;2022-09-19T23:52:29;7.22;;;1.85;;
16272;SDS011;8244;50.044;9.006;2022-09-19T23:57:52;8.05;;;1.98;;
